sensor_id;sensor_type;location;lat;lon;timestamp;P1;durP1;ratioP1;P2;durP2;ratioP2
20888;SDS011;10604;51.976;7.594;2022-12-29T00:01:14;2.60;;;1.48;;
20888;SDS011;10604;51.976;7.594;2022-12-29T00:03:39;1.83;;;1.50;;
20888;SDS011;10604;51.976;7.594;2022-12-29T00:06:05;2.60;;;1.40;;
20888;SDS011;10604;51.976;7.594;2022-12-29T00:08:30;1.58;;;1.40;;
20888;SDS011;10604;51.976;7.594;2022-12-29T00:11:15;2.35;;;1.40;;
20888;SDS011;10604;51.976;7.594;2022-12-29T00:13:51;1.60;;;1.20;;
20888;SDS011;10604;51.976;7.594;2022-12-29T00:16:35;1.40;;;1.30;;
20888;SDS011;10604;51.976;7.594;2022-12-29T00:19:01;1.80;;;1.38;;
20888;SDS011;10604;51.976;7.594;2022-12-29T00:21:28;1.48;;;1.23;;
20888;SDS011;10604;51.976;7.594;2022-12-29T00:24:16;1.33;;;1.23;;
20888;SDS011;10604;51.976;7.594;2022-12-29T00:29:48;1.87;;;1.20;;
20888;SDS011;10604;51.976;7.594;2022-12-29T00:32:32;1.00;;;1.00;;
20888;SDS011;10604;51.976;7.594;2022-12-29T00:35:33;1.95;;;1.13;;
20888;SDS011;10604;51.976;7.594;2022-12-29T00:38:09;1.23;;;1.10;;
20888;SDS011;10604;51.976;7.594;2022-12-29T00:40:55;1.10;;;1.00;;
20888;SDS011;10604;51.976;7.594;2022-12-29T00:43:39;2.05;;;1.27;;
20888;SDS011;10604;51.976;7.594;2022-12-29T00:46:23;1.20;;;1.00;;
20888;SDS011;10604;51.976;7.594;2022-12-29T00:48:48;1.13;;;0.90;;
20888;SDS011;10604;51.976;7.594;2022-12-29T00:51:32;1.48;;;1.10;;
20888;SDS011;10604;51.976;7.594;2022-12-29T00:53:57;2.20;;;1.17;;
20888;SDS011;10604;51.976;7.594;2022-12-29T00:56:23;2.42;;;1.20;;
20888;SDS011;10604;51.976;7.594;2022-12-29T00:58:48;1.90;;;1.20;;
20888;SDS011;10604;51.976;7.594;2022-12-29T01:01:13;2.17;;;1.40;;
20888;SDS011;10604;51.976;7.594;2022-12-29T01:03:39;1.67;;;1.20;;
20888;SDS011;10604;51.976;7.594;2022-12-29T01:06:05;2.67;;;1.30;;
20888;SDS011;10604;51.976;7.594;2022-12-29T01:08:33;1.35;;;1.25;;
20888;SDS011;10604;51.976;7.594;2022-12-29T01:11:03;1.58;;;1.25;;
20888;SDS011;10604;51.976;7.594;2022-12-29T01:13:33;2.13;;;1.40;;
20888;SDS011;10604;51.976;7.594;2022-12-29T01:15:59;2.50;;;1.38;;
20888;SDS011;10604;51.976;7.594;2022-12-29T01:18:25;2.57;;;1.60;;
20888;SDS011;10604;51.976;7.594;2022-12-29T01:20:50;2.30;;;1.60;;
20888;SDS011;10604;51.976;7.594;2022-12-29T01:23:16;2.22;;;1.80;;
20888;SDS011;10604;51.976;7.594;2022-12-29T01:25:42;2.93;;;1.60;;
20888;SDS011;10604;51.976;7.594;2022-12-29T01:28:07;2.60;;;1.70;;
20888;SDS011;10604;51.976;7.594;2022-12-29T01:30:33;2.53;;;1.75;;
20888;SDS011;10604;51.976;7.594;2022-12-29T01:32:59;2.75;;;1.70;;
20888;SDS011;10604;51.976;7.594;2022-12-29T01:35:25;2.10;;;1.60;;
20888;SDS011;10604;51.976;7.594;2022-12-29T01:37:50;2.45;;;1.63;;
20888;SDS011;10604;51.976;7.594;2022-12-29T01:40:15;2.40;;;1.60;;
20888;SDS011;10604;51.976;7.594;2022-12-29T01:42:41;2.20;;;1.60;;
20888;SDS011;10604;51.976;7.594;2022-12-29T01:45:13;2.17;;;1.50;;
20888;SDS011;10604;51.976;7.594;2022-12-29T01:47:55;3.85;;;1.70;;
20888;SDS011;10604;51.976;7.594;2022-12-29T01:50:33;2.33;;;1.58;;
20888;SDS011;10604;51.976;7.594;2022-12-29T01:53:18;3.05;;;1.55;;
20888;SDS011;10604;51.976;7.594;2022-12-29T01:55:50;1.70;;;1.50;;
20888;SDS011;10604;51.976;7.594;2022-12-29T01:58:19;1.58;;;1.40;;
20888;SDS011;10604;51.976;7.594;2022-12-29T02:00:49;2.70;;;1.42;;
20888;SDS011;10604;51.976;7.594;2022-12-29T02:03:15;2.03;;;1.47;;
20888;SDS011;10604;51.976;7.594;2022-12-29T02:05:58;2.40;;;1.30;;
20888;SDS011;10604;51.976;7.594;2022-12-29T02:08:29;1.98;;;1.25;;
20888;SDS011;10604;51.976;7.594;2022-12-29T02:10:55;2.60;;;1.20;;
20888;SDS011;10604;51.976;7.594;2022-12-29T02:13:23;2.33;;;1.15;;
20888;SDS011;10604;51.976;7.594;2022-12-29T02:43:18;2.17;;;1.00;;
20888;SDS011;10604;51.976;7.594;2022-12-29T02:46:04;0.95;;;0.80;;
20888;SDS011;10604;51.976;7.594;2022-12-29T02:51:54;0.93;;;0.60;;
20888;SDS011;10604;51.976;7.594;2022-12-29T02:54:26;1.10;;;0.53;;
20888;SDS011;10604;51.976;7.594;2022-12-29T02:57:28;0.70;;;0.52;;
20888;SDS011;10604;51.976;7.594;2022-12-29T03:00:00;0.73;;;0.57;;
20888;SDS011;10604;51.976;7.594;2022-12-29T03:05:09;0.60;;;0.60;;
20888;SDS011;10604;51.976;7.594;2022-12-29T03:16:00;1.48;;;0.60;;
20888;SDS011;10604;51.976;7.594;2022-12-29T03:24:14;1.08;;;0.60;;
20888;SDS011;10604;51.976;7.594;2022-12-29T03:26:42;0.60;;;0.50;;
20888;SDS011;10604;51.976;7.594;2022-12-29T03:29:10;1.40;;;0.75;;
20888;SDS011;10604;51.976;7.594;2022-12-29T03:31:37;0.90;;;0.60;;
20888;SDS011;10604;51.976;7.594;2022-12-29T03:34:04;1.00;;;0.67;;
20888;SDS011;10604;51.976;7.594;2022-12-29T03:36:47;1.40;;;0.65;;
20888;SDS011;10604;51.976;7.594;2022-12-29T03:39:16;1.17;;;0.68;;
20888;SDS011;10604;51.976;7.594;2022-12-29T03:41:47;1.85;;;0.80;;
20888;SDS011;10604;51.976;7.594;2022-12-29T03:44:17;0.80;;;0.70;;
20888;SDS011;10604;51.976;7.594;2022-12-29T03:46:42;2.23;;;0.80;;
20888;SDS011;10604;51.976;7.594;2022-12-29T03:49:08;1.33;;;0.80;;
20888;SDS011;10604;51.976;7.594;2022-12-29T03:51:33;2.17;;;0.98;;
20888;SDS011;10604;51.976;7.594;2022-12-29T03:53:58;1.77;;;0.90;;
20888;SDS011;10604;51.976;7.594;2022-12-29T03:56:24;2.30;;;0.73;;
20888;SDS011;10604;51.976;7.594;2022-12-29T03:58:49;1.30;;;0.70;;
20888;SDS011;10604;51.976;7.594;2022-12-29T04:01:14;2.83;;;0.70;;
20888;SDS011;10604;51.976;7.594;2022-12-29T04:03:40;2.40;;;1.00;;
20888;SDS011;10604;51.976;7.594;2022-12-29T04:06:05;1.60;;;0.80;;
20888;SDS011;10604;51.976;7.594;2022-12-29T04:08:30;1.43;;;0.70;;
20888;SDS011;10604;51.976;7.594;2022-12-29T04:10:56;1.90;;;0.80;;
20888;SDS011;10604;51.976;7.594;2022-12-29T04:13:21;1.33;;;0.80;;
20888;SDS011;10604;51.976;7.594;2022-12-29T04:15:46;1.40;;;0.83;;
20888;SDS011;10604;51.976;7.594;2022-12-29T04:18:12;2.53;;;0.90;;
20888;SDS011;10604;51.976;7.594;2022-12-29T04:20:38;1.67;;;0.80;;
20888;SDS011;10604;51.976;7.594;2022-12-29T04:23:22;1.33;;;0.80;;
20888;SDS011;10604;51.976;7.594;2022-12-29T04:25:48;4.60;;;0.90;;
20888;SDS011;10604;51.976;7.594;2022-12-29T04:28:14;2.40;;;1.10;;
20888;SDS011;10604;51.976;7.594;2022-12-29T04:30:40;2.47;;;0.90;;
20888;SDS011;10604;51.976;7.594;2022-12-29T04:33:05;1.93;;;1.00;;
20888;SDS011;10604;51.976;7.594;2022-12-29T04:35:31;2.03;;;1.00;;
20888;SDS011;10604;51.976;7.594;2022-12-29T04:37:57;1.63;;;0.90;;
20888;SDS011;10604;51.976;7.594;2022-12-29T04:40:22;4.37;;;1.10;;
20888;SDS011;10604;51.976;7.594;2022-12-29T04:42:48;1.77;;;1.20;;
20888;SDS011;10604;51.976;7.594;2022-12-29T04:45:14;1.27;;;0.88;;
20888;SDS011;10604;51.976;7.594;2022-12-29T04:47:39;2.47;;;1.10;;
20888;SDS011;10604;51.976;7.594;2022-12-29T04:50:04;2.00;;;1.13;;
20888;SDS011;10604;51.976;7.594;2022-12-29T04:52:30;2.42;;;1.17;;
20888;SDS011;10604;51.976;7.594;2022-12-29T04:54:55;2.20;;;1.10;;
20888;SDS011;10604;51.976;7.594;2022-12-29T04:57:21;1.67;;;1.23;;
20888;SDS011;10604;51.976;7.594;2022-12-29T04:59:46;2.40;;;1.30;;
20888;SDS011;10604;51.976;7.594;2022-12-29T05:02:11;5.03;;;1.40;;
20888;SDS011;10604;51.976;7.594;2022-12-29T05:04:37;2.77;;;1.20;;
20888;SDS011;10604;51.976;7.594;2022-12-29T05:07:02;2.10;;;1.10;;
20888;SDS011;10604;51.976;7.594;2022-12-29T05:09:27;3.20;;;1.10;;
20888;SDS011;10604;51.976;7.594;2022-12-29T05:11:54;1.95;;;1.02;;
20888;SDS011;10604;51.976;7.594;2022-12-29T05:14:20;1.33;;;1.00;;
20888;SDS011;10604;51.976;7.594;2022-12-29T05:16:45;2.30;;;1.40;;
20888;SDS011;10604;51.976;7.594;2022-12-29T05:19:11;2.57;;;1.30;;
20888;SDS011;10604;51.976;7.594;2022-12-29T05:21:36;6.00;;;1.40;;
20888;SDS011;10604;51.976;7.594;2022-12-29T05:24:02;2.72;;;0.80;;
20888;SDS011;10604;51.976;7.594;2022-12-29T05:26:27;1.70;;;0.70;;
20888;SDS011;10604;51.976;7.594;2022-12-29T05:28:52;1.30;;;0.80;;
20888;SDS011;10604;51.976;7.594;2022-12-29T05:31:18;3.57;;;0.70;;
20888;SDS011;10604;51.976;7.594;2022-12-29T05:33:43;1.45;;;0.70;;
20888;SDS011;10604;51.976;7.594;2022-12-29T05:36:08;1.83;;;0.60;;
20888;SDS011;10604;51.976;7.594;2022-12-29T05:38:39;1.90;;;0.68;;
20888;SDS011;10604;51.976;7.594;2022-12-29T05:41:04;3.07;;;0.70;;
20888;SDS011;10604;51.976;7.594;2022-12-29T05:43:29;1.30;;;0.60;;
20888;SDS011;10604;51.976;7.594;2022-12-29T05:45:55;1.30;;;0.77;;
20888;SDS011;10604;51.976;7.594;2022-12-29T05:48:22;1.08;;;0.70;;
20888;SDS011;10604;51.976;7.594;2022-12-29T05:50:48;1.70;;;0.53;;
20888;SDS011;10604;51.976;7.594;2022-12-29T05:53:13;1.65;;;0.57;;
20888;SDS011;10604;51.976;7.594;2022-12-29T05:55:39;2.43;;;0.70;;
20888;SDS011;10604;51.976;7.594;2022-12-29T05:58:04;2.60;;;0.60;;
20888;SDS011;10604;51.976;7.594;2022-12-29T06:00:29;2.10;;;0.70;;
20888;SDS011;10604;51.976;7.594;2022-12-29T06:02:55;3.13;;;0.87;;
20888;SDS011;10604;51.976;7.594;2022-12-29T06:05:20;1.77;;;0.90;;
20888;SDS011;10604;51.976;7.594;2022-12-29T06:07:45;1.17;;;0.40;;
20888;SDS011;10604;51.976;7.594;2022-12-29T06:10:11;1.73;;;0.68;;
20888;SDS011;10604;51.976;7.594;2022-12-29T06:12:37;1.10;;;0.60;;
20888;SDS011;10604;51.976;7.594;2022-12-29T06:15:02;1.77;;;0.60;;
20888;SDS011;10604;51.976;7.594;2022-12-29T06:17:28;2.53;;;0.88;;
20888;SDS011;10604;51.976;7.594;2022-12-29T06:19:53;2.90;;;1.20;;
20888;SDS011;10604;51.976;7.594;2022-12-29T06:22:18;2.43;;;0.90;;
20888;SDS011;10604;51.976;7.594;2022-12-29T06:24:44;2.30;;;0.80;;
20888;SDS011;10604;51.976;7.594;2022-12-29T06:27:09;2.80;;;0.90;;
20888;SDS011;10604;51.976;7.594;2022-12-29T06:29:34;1.93;;;0.80;;
20888;SDS011;10604;51.976;7.594;2022-12-29T06:32:02;1.80;;;0.80;;
20888;SDS011;10604;51.976;7.594;2022-12-29T06:34:28;2.40;;;0.80;;
20888;SDS011;10604;51.976;7.594;2022-12-29T06:36:53;2.17;;;0.90;;
20888;SDS011;10604;51.976;7.594;2022-12-29T06:39:19;1.97;;;1.10;;
20888;SDS011;10604;51.976;7.594;2022-12-29T06:41:44;1.70;;;0.90;;
20888;SDS011;10604;51.976;7.594;2022-12-29T06:44:10;2.92;;;1.00;;
20888;SDS011;10604;51.976;7.594;2022-12-29T06:46:35;2.57;;;1.07;;
20888;SDS011;10604;51.976;7.594;2022-12-29T06:49:00;1.73;;;1.00;;
20888;SDS011;10604;51.976;7.594;2022-12-29T06:51:26;1.97;;;1.03;;
20888;SDS011;10604;51.976;7.594;2022-12-29T06:53:51;2.15;;;1.00;;
20888;SDS011;10604;51.976;7.594;2022-12-29T06:56:16;2.00;;;0.90;;
20888;SDS011;10604;51.976;7.594;2022-12-29T06:58:42;2.73;;;1.00;;
20888;SDS011;10604;51.976;7.594;2022-12-29T07:01:07;2.37;;;1.00;;
20888;SDS011;10604;51.976;7.594;2022-12-29T07:03:32;3.70;;;1.07;;
20888;SDS011;10604;51.976;7.594;2022-12-29T07:05:58;2.58;;;1.10;;
20888;SDS011;10604;51.976;7.594;2022-12-29T07:08:24;4.30;;;1.53;;
20888;SDS011;10604;51.976;7.594;2022-12-29T07:10:49;3.92;;;1.27;;
20888;SDS011;10604;51.976;7.594;2022-12-29T07:13:14;2.93;;;1.20;;
20888;SDS011;10604;51.976;7.594;2022-12-29T07:15:40;5.40;;;1.03;;
20888;SDS011;10604;51.976;7.594;2022-12-29T07:18:05;3.53;;;1.30;;
20888;SDS011;10604;51.976;7.594;2022-12-29T07:20:31;4.37;;;1.20;;
20888;SDS011;10604;51.976;7.594;2022-12-29T07:22:57;3.22;;;1.10;;
20888;SDS011;10604;51.976;7.594;2022-12-29T07:25:23;4.15;;;1.10;;
20888;SDS011;10604;51.976;7.594;2022-12-29T07:27:48;3.17;;;1.00;;
20888;SDS011;10604;51.976;7.594;2022-12-29T07:30:14;3.47;;;1.00;;
20888;SDS011;10604;51.976;7.594;2022-12-29T07:32:40;2.73;;;1.10;;
20888;SDS011;10604;51.976;7.594;2022-12-29T07:35:05;3.15;;;1.23;;
20888;SDS011;10604;51.976;7.594;2022-12-29T07:37:31;3.80;;;0.95;;
20888;SDS011;10604;51.976;7.594;2022-12-29T07:39:57;3.40;;;1.00;;
20888;SDS011;10604;51.976;7.594;2022-12-29T07:42:22;2.70;;;0.90;;
20888;SDS011;10604;51.976;7.594;2022-12-29T07:44:48;4.43;;;1.40;;
20888;SDS011;10604;51.976;7.594;2022-12-29T07:47:13;2.80;;;0.90;;
20888;SDS011;10604;51.976;7.594;2022-12-29T07:49:38;3.07;;;1.00;;
20888;SDS011;10604;51.976;7.594;2022-12-29T07:52:04;5.23;;;1.30;;
20888;SDS011;10604;51.976;7.594;2022-12-29T07:54:29;4.35;;;1.15;;
20888;SDS011;10604;51.976;7.594;2022-12-29T07:56:54;3.73;;;1.20;;
20888;SDS011;10604;51.976;7.594;2022-12-29T07:59:20;3.47;;;1.10;;
20888;SDS011;10604;51.976;7.594;2022-12-29T08:01:45;2.57;;;0.80;;
20888;SDS011;10604;51.976;7.594;2022-12-29T08:04:11;4.05;;;1.15;;
20888;SDS011;10604;51.976;7.594;2022-12-29T08:06:36;3.30;;;0.93;;
20888;SDS011;10604;51.976;7.594;2022-12-29T08:09:02;2.92;;;1.20;;
20888;SDS011;10604;51.976;7.594;2022-12-29T08:11:28;3.63;;;1.10;;
20888;SDS011;10604;51.976;7.594;2022-12-29T08:13:54;2.87;;;1.10;;
20888;SDS011;10604;51.976;7.594;2022-12-29T08:16:19;3.38;;;1.10;;
20888;SDS011;10604;51.976;7.594;2022-12-29T08:18:44;3.23;;;1.10;;
20888;SDS011;10604;51.976;7.594;2022-12-29T08:21:10;3.50;;;1.03;;
20888;SDS011;10604;51.976;7.594;2022-12-29T08:23:36;3.73;;;1.20;;
20888;SDS011;10604;51.976;7.594;2022-12-29T08:26:02;3.05;;;1.17;;
20888;SDS011;10604;51.976;7.594;2022-12-29T08:28:29;5.22;;;1.30;;
20888;SDS011;10604;51.976;7.594;2022-12-29T08:31:02;6.30;;;1.27;;
20888;SDS011;10604;51.976;7.594;2022-12-29T08:33:28;4.03;;;1.08;;
20888;SDS011;10604;51.976;7.594;2022-12-29T08:35:58;5.28;;;1.27;;
20888;SDS011;10604;51.976;7.594;2022-12-29T08:38:26;3.47;;;1.13;;
20888;SDS011;10604;51.976;7.594;2022-12-29T08:40:52;4.47;;;1.17;;
20888;SDS011;10604;51.976;7.594;2022-12-29T08:43:18;4.50;;;1.30;;
20888;SDS011;10604;51.976;7.594;2022-12-29T08:45:43;3.60;;;1.37;;
20888;SDS011;10604;51.976;7.594;2022-12-29T08:48:08;4.13;;;1.30;;
20888;SDS011;10604;51.976;7.594;2022-12-29T08:50:34;5.10;;;1.43;;
20888;SDS011;10604;51.976;7.594;2022-12-29T08:52:59;5.93;;;1.48;;
20888;SDS011;10604;51.976;7.594;2022-12-29T08:55:24;4.87;;;1.50;;
20888;SDS011;10604;51.976;7.594;2022-12-29T08:57:50;4.63;;;1.10;;
20888;SDS011;10604;51.976;7.594;2022-12-29T09:00:16;3.47;;;1.23;;
20888;SDS011;10604;51.976;7.594;2022-12-29T09:02:41;4.30;;;1.30;;
20888;SDS011;10604;51.976;7.594;2022-12-29T09:05:07;4.88;;;1.35;;
20888;SDS011;10604;51.976;7.594;2022-12-29T09:07:33;6.10;;;1.27;;
20888;SDS011;10604;51.976;7.594;2022-12-29T09:09:58;3.97;;;1.17;;
20888;SDS011;10604;51.976;7.594;2022-12-29T09:12:23;4.43;;;1.33;;
20888;SDS011;10604;51.976;7.594;2022-12-29T09:14:49;5.57;;;1.40;;
20888;SDS011;10604;51.976;7.594;2022-12-29T09:17:14;5.10;;;1.30;;
20888;SDS011;10604;51.976;7.594;2022-12-29T09:19:58;3.92;;;1.33;;
20888;SDS011;10604;51.976;7.594;2022-12-29T09:22:23;3.97;;;1.30;;
20888;SDS011;10604;51.976;7.594;2022-12-29T09:24:49;6.57;;;1.47;;
20888;SDS011;10604;51.976;7.594;2022-12-29T09:27:14;4.13;;;1.37;;
20888;SDS011;10604;51.976;7.594;2022-12-29T09:29:39;4.70;;;1.50;;
20888;SDS011;10604;51.976;7.594;2022-12-29T09:32:05;5.22;;;1.50;;
20888;SDS011;10604;51.976;7.594;2022-12-29T09:34:30;5.70;;;1.50;;
20888;SDS011;10604;51.976;7.594;2022-12-29T09:36:56;5.70;;;1.57;;
20888;SDS011;10604;51.976;7.594;2022-12-29T09:39:22;5.00;;;1.50;;
20888;SDS011;10604;51.976;7.594;2022-12-29T09:41:58;6.27;;;1.50;;
20888;SDS011;10604;51.976;7.594;2022-12-29T09:44:31;4.68;;;1.58;;
20888;SDS011;10604;51.976;7.594;2022-12-29T09:47:08;7.60;;;1.70;;
20888;SDS011;10604;51.976;7.594;2022-12-29T09:52:15;6.47;;;1.80;;
20888;SDS011;10604;51.976;7.594;2022-12-29T09:57:24;4.38;;;1.52;;
20888;SDS011;10604;51.976;7.594;2022-12-29T09:59:54;4.88;;;1.50;;
20888;SDS011;10604;51.976;7.594;2022-12-29T10:02:37;7.45;;;1.67;;
20888;SDS011;10604;51.976;7.594;2022-12-29T10:07:42;3.47;;;1.27;;
20888;SDS011;10604;51.976;7.594;2022-12-29T10:10:25;5.70;;;1.50;;
20888;SDS011;10604;51.976;7.594;2022-12-29T10:13:04;4.13;;;1.10;;
20888;SDS011;10604;51.976;7.594;2022-12-29T10:15:46;5.13;;;1.48;;
20888;SDS011;10604;51.976;7.594;2022-12-29T10:21:08;5.78;;;1.60;;
20888;SDS011;10604;51.976;7.594;2022-12-29T10:23:43;5.03;;;1.52;;
20888;SDS011;10604;51.976;7.594;2022-12-29T10:26:17;6.37;;;1.67;;
20888;SDS011;10604;51.976;7.594;2022-12-29T10:29:05;5.68;;;1.50;;
20888;SDS011;10604;51.976;7.594;2022-12-29T10:31:39;4.90;;;1.40;;
20888;SDS011;10604;51.976;7.594;2022-12-29T10:34:22;6.05;;;1.50;;
20888;SDS011;10604;51.976;7.594;2022-12-29T10:36:53;7.32;;;2.00;;
20888;SDS011;10604;51.976;7.594;2022-12-29T10:39:27;4.07;;;1.42;;
20888;SDS011;10604;51.976;7.594;2022-12-29T10:42:04;5.50;;;1.60;;
20888;SDS011;10604;51.976;7.594;2022-12-29T10:44:53;4.38;;;1.55;;
20888;SDS011;10604;51.976;7.594;2022-12-29T10:47:25;4.95;;;1.77;;
20888;SDS011;10604;51.976;7.594;2022-12-29T10:49:54;5.13;;;1.40;;
20888;SDS011;10604;51.976;7.594;2022-12-29T10:52:23;5.55;;;1.52;;
20888;SDS011;10604;51.976;7.594;2022-12-29T10:54:56;5.33;;;1.70;;
20888;SDS011;10604;51.976;7.594;2022-12-29T10:57:31;6.32;;;1.70;;
20888;SDS011;10604;51.976;7.594;2022-12-29T10:59:59;4.25;;;1.63;;
20888;SDS011;10604;51.976;7.594;2022-12-29T11:05:23;8.20;;;1.63;;
20888;SDS011;10604;51.976;7.594;2022-12-29T11:08:02;5.97;;;1.80;;
20888;SDS011;10604;51.976;7.594;2022-12-29T11:13:02;6.03;;;1.40;;
20888;SDS011;10604;51.976;7.594;2022-12-29T11:15:48;6.15;;;1.70;;
20888;SDS011;10604;51.976;7.594;2022-12-29T11:18:25;5.57;;;1.40;;
20888;SDS011;10604;51.976;7.594;2022-12-29T11:20:59;3.70;;;1.23;;
20888;SDS011;10604;51.976;7.594;2022-12-29T11:26:15;5.10;;;1.60;;
20888;SDS011;10604;51.976;7.594;2022-12-29T11:28:42;7.63;;;1.55;;
20888;SDS011;10604;51.976;7.594;2022-12-29T11:31:10;5.20;;;1.20;;
20888;SDS011;10604;51.976;7.594;2022-12-29T11:33:40;5.10;;;1.30;;
20888;SDS011;10604;51.976;7.594;2022-12-29T11:36:06;6.53;;;1.93;;
20888;SDS011;10604;51.976;7.594;2022-12-29T11:38:49;4.72;;;1.40;;
20888;SDS011;10604;51.976;7.594;2022-12-29T11:41:23;4.50;;;1.45;;
20888;SDS011;10604;51.976;7.594;2022-12-29T11:43:53;7.10;;;1.50;;
20888;SDS011;10604;51.976;7.594;2022-12-29T11:46:24;5.85;;;1.52;;
20888;SDS011;10604;51.976;7.594;2022-12-29T11:48:52;4.97;;;1.70;;
20888;SDS011;10604;51.976;7.594;2022-12-29T11:51:23;8.15;;;1.85;;
20888;SDS011;10604;51.976;7.594;2022-12-29T11:53:53;6.05;;;1.70;;
20888;SDS011;10604;51.976;7.594;2022-12-29T11:56:41;6.57;;;1.30;;
20888;SDS011;10604;51.976;7.594;2022-12-29T12:01:51;5.88;;;1.50;;
20888;SDS011;10604;51.976;7.594;2022-12-29T12:04:18;4.07;;;1.40;;
20888;SDS011;10604;51.976;7.594;2022-12-29T12:06:48;4.75;;;1.40;;
20888;SDS011;10604;51.976;7.594;2022-12-29T12:09:45;5.27;;;1.60;;
20888;SDS011;10604;51.976;7.594;2022-12-29T12:12:48;9.13;;;1.70;;
20888;SDS011;10604;51.976;7.594;2022-12-29T12:15:20;6.28;;;1.60;;
20888;SDS011;10604;51.976;7.594;2022-12-29T12:18:17;6.22;;;1.70;;
20888;SDS011;10604;51.976;7.594;2022-12-29T12:26:22;6.55;;;1.50;;
20888;SDS011;10604;51.976;7.594;2022-12-29T12:29:14;6.43;;;1.60;;
20888;SDS011;10604;51.976;7.594;2022-12-29T12:31:47;4.63;;;1.45;;
20888;SDS011;10604;51.976;7.594;2022-12-29T12:34:22;4.45;;;1.42;;
20888;SDS011;10604;51.976;7.594;2022-12-29T12:51:03;6.25;;;1.75;;
20888;SDS011;10604;51.976;7.594;2022-12-29T12:54:20;4.57;;;1.42;;
20888;SDS011;10604;51.976;7.594;2022-12-29T12:59:49;4.60;;;1.77;;
20888;SDS011;10604;51.976;7.594;2022-12-29T13:02:40;4.70;;;1.42;;
20888;SDS011;10604;51.976;7.594;2022-12-29T13:05:25;9.10;;;1.80;;
20888;SDS011;10604;51.976;7.594;2022-12-29T13:18:27;6.85;;;1.85;;
20888;SDS011;10604;51.976;7.594;2022-12-29T13:26:35;6.68;;;1.70;;
20888;SDS011;10604;51.976;7.594;2022-12-29T13:32:24;6.28;;;1.58;;
20888;SDS011;10604;51.976;7.594;2022-12-29T13:35:18;6.20;;;1.58;;
20888;SDS011;10604;51.976;7.594;2022-12-29T13:37:49;4.88;;;1.70;;
20888;SDS011;10604;51.976;7.594;2022-12-29T13:40:21;7.55;;;1.80;;
20888;SDS011;10604;51.976;7.594;2022-12-29T13:42:49;5.03;;;1.57;;
20888;SDS011;10604;51.976;7.594;2022-12-29T13:45:25;6.20;;;1.75;;
20888;SDS011;10604;51.976;7.594;2022-12-29T13:47:59;7.47;;;2.20;;
20888;SDS011;10604;51.976;7.594;2022-12-29T13:50:31;8.48;;;1.75;;
20888;SDS011;10604;51.976;7.594;2022-12-29T13:56:10;6.38;;;1.52;;
20888;SDS011;10604;51.976;7.594;2022-12-29T14:01:40;6.35;;;1.77;;
20888;SDS011;10604;51.976;7.594;2022-12-29T14:04:13;5.65;;;1.58;;
20888;SDS011;10604;51.976;7.594;2022-12-29T14:06:39;7.40;;;1.83;;
20888;SDS011;10604;51.976;7.594;2022-12-29T14:11:57;7.47;;;2.03;;
20888;SDS011;10604;51.976;7.594;2022-12-29T14:14:23;6.90;;;1.90;;
20888;SDS011;10604;51.976;7.594;2022-12-29T14:16:52;6.55;;;2.10;;
20888;SDS011;10604;51.976;7.594;2022-12-29T14:19:29;6.75;;;1.90;;
20888;SDS011;10604;51.976;7.594;2022-12-29T14:22:00;5.93;;;2.03;;
20888;SDS011;10604;51.976;7.594;2022-12-29T14:26:56;9.50;;;2.15;;
20888;SDS011;10604;51.976;7.594;2022-12-29T14:31:50;6.47;;;1.88;;
20888;SDS011;10604;51.976;7.594;2022-12-29T14:34:25;5.93;;;2.00;;
20888;SDS011;10604;51.976;7.594;2022-12-29T14:41:59;4.97;;;1.92;;
20888;SDS011;10604;51.976;7.594;2022-12-29T14:44:33;8.68;;;1.88;;
20888;SDS011;10604;51.976;7.594;2022-12-29T14:47:11;6.55;;;1.88;;
20888;SDS011;10604;51.976;7.594;2022-12-29T14:49:44;6.80;;;1.65;;
20888;SDS011;10604;51.976;7.594;2022-12-29T14:52:28;7.00;;;1.80;;
20888;SDS011;10604;51.976;7.594;2022-12-29T14:55:28;4.38;;;1.67;;
20888;SDS011;10604;51.976;7.594;2022-12-29T14:58:01;5.43;;;1.90;;
20888;SDS011;10604;51.976;7.594;2022-12-29T15:00:30;4.43;;;1.48;;
20888;SDS011;10604;51.976;7.594;2022-12-29T15:03:17;5.00;;;1.55;;
20888;SDS011;10604;51.976;7.594;2022-12-29T15:05:48;6.97;;;1.77;;
20888;SDS011;10604;51.976;7.594;2022-12-29T15:08:17;3.83;;;1.40;;
20888;SDS011;10604;51.976;7.594;2022-12-29T15:10:49;6.97;;;1.90;;
20888;SDS011;10604;51.976;7.594;2022-12-29T15:13:31;6.30;;;1.63;;
20888;SDS011;10604;51.976;7.594;2022-12-29T15:15:59;6.10;;;1.70;;
20888;SDS011;10604;51.976;7.594;2022-12-29T15:18:33;5.35;;;1.50;;
20888;SDS011;10604;51.976;7.594;2022-12-29T15:21:02;5.47;;;1.40;;
20888;SDS011;10604;51.976;7.594;2022-12-29T15:23:31;5.75;;;1.65;;
20888;SDS011;10604;51.976;7.594;2022-12-29T15:25:59;7.20;;;2.15;;
20888;SDS011;10604;51.976;7.594;2022-12-29T15:28:25;8.52;;;1.70;;
20888;SDS011;10604;51.976;7.594;2022-12-29T15:30:56;6.57;;;2.08;;
20888;SDS011;10604;51.976;7.594;2022-12-29T15:33:28;5.20;;;1.67;;
20888;SDS011;10604;51.976;7.594;2022-12-29T15:35:55;6.65;;;1.90;;
20888;SDS011;10604;51.976;7.594;2022-12-29T15:38:28;9.43;;;1.85;;
20888;SDS011;10604;51.976;7.594;2022-12-29T15:41:00;6.85;;;2.38;;
20888;SDS011;10604;51.976;7.594;2022-12-29T15:46:01;4.93;;;1.83;;
20888;SDS011;10604;51.976;7.594;2022-12-29T15:48:27;4.72;;;1.70;;
20888;SDS011;10604;51.976;7.594;2022-12-29T15:50:53;6.28;;;1.80;;
20888;SDS011;10604;51.976;7.594;2022-12-29T15:53:23;7.50;;;1.80;;
20888;SDS011;10604;51.976;7.594;2022-12-29T15:55:54;4.68;;;1.95;;
20888;SDS011;10604;51.976;7.594;2022-12-29T15:58:26;7.35;;;2.78;;
20888;SDS011;10604;51.976;7.594;2022-12-29T16:00:57;12.88;;;5.43;;
20888;SDS011;10604;51.976;7.594;2022-12-29T16:03:24;9.10;;;2.97;;
20888;SDS011;10604;51.976;7.594;2022-12-29T16:05:53;8.35;;;3.22;;
20888;SDS011;10604;51.976;7.594;2022-12-29T16:08:32;8.10;;;3.03;;
20888;SDS011;10604;51.976;7.594;2022-12-29T16:11:02;7.68;;;2.78;;
20888;SDS011;10604;51.976;7.594;2022-12-29T16:13:49;6.55;;;2.15;;
20888;SDS011;10604;51.976;7.594;2022-12-29T16:16:18;8.32;;;2.28;;
20888;SDS011;10604;51.976;7.594;2022-12-29T16:18:46;5.37;;;2.27;;
20888;SDS011;10604;51.976;7.594;2022-12-29T16:21:23;5.00;;;1.52;;
20888;SDS011;10604;51.976;7.594;2022-12-29T16:24:02;5.20;;;1.83;;
20888;SDS011;10604;51.976;7.594;2022-12-29T16:26:37;10.70;;;3.33;;
20888;SDS011;10604;51.976;7.594;2022-12-29T16:29:04;9.00;;;2.85;;
20888;SDS011;10604;51.976;7.594;2022-12-29T16:31:36;8.00;;;2.05;;
20888;SDS011;10604;51.976;7.594;2022-12-29T16:34:29;7.22;;;2.13;;
20888;SDS011;10604;51.976;7.594;2022-12-29T16:38:06;5.43;;;2.60;;
20888;SDS011;10604;51.976;7.594;2022-12-29T16:42:48;5.38;;;2.40;;
20888;SDS011;10604;51.976;7.594;2022-12-29T16:47:46;6.13;;;2.67;;
20888;SDS011;10604;51.976;7.594;2022-12-29T16:50:15;6.55;;;3.30;;
20888;SDS011;10604;51.976;7.594;2022-12-29T16:52:50;7.20;;;3.45;;
20888;SDS011;10604;51.976;7.594;2022-12-29T16:55:16;7.53;;;3.13;;
20888;SDS011;10604;51.976;7.594;2022-12-29T16:57:43;7.70;;;3.65;;
20888;SDS011;10604;51.976;7.594;2022-12-29T17:03:04;10.15;;;5.32;;
20888;SDS011;10604;51.976;7.594;2022-12-29T17:05:30;10.77;;;4.45;;
20888;SDS011;10604;51.976;7.594;2022-12-29T17:07:58;7.47;;;3.50;;
20888;SDS011;10604;51.976;7.594;2022-12-29T17:10:27;8.23;;;3.00;;
20888;SDS011;10604;51.976;7.594;2022-12-29T17:13:12;7.30;;;2.33;;
20888;SDS011;10604;51.976;7.594;2022-12-29T17:15:38;6.23;;;2.50;;
20888;SDS011;10604;51.976;7.594;2022-12-29T17:18:03;6.73;;;2.60;;
20888;SDS011;10604;51.976;7.594;2022-12-29T17:20:30;7.55;;;2.50;;
20888;SDS011;10604;51.976;7.594;2022-12-29T17:22:56;8.43;;;2.97;;
20888;SDS011;10604;51.976;7.594;2022-12-29T17:25:25;7.23;;;2.00;;
20888;SDS011;10604;51.976;7.594;2022-12-29T17:27:58;6.20;;;2.00;;
20888;SDS011;10604;51.976;7.594;2022-12-29T17:30:28;7.65;;;2.97;;